createdAt,value
2019-04-06T00:01:23.455Z,37.96
2019-04-06T00:03:54.826Z,38.25
2019-04-06T00:06:26.283Z,38.32
2019-04-06T00:08:57.559Z,38.50
2019-04-06T00:11:28.951Z,39.05
2019-04-06T00:14:00.232Z,39.21
2019-04-06T00:16:31.610Z,39.67
2019-04-06T00:19:02.841Z,39.92
2019-04-06T00:21:34.067Z,39.95
2019-04-06T00:24:05.462Z,40.86
2019-04-06T00:27:01.680Z,40.90
2019-04-06T00:29:32.905Z,40.87
2019-04-06T00:32:11.901Z,41.02
2019-04-06T00:34:43.119Z,40.95
2019-04-06T00:37:14.537Z,41.48
2019-04-06T00:39:45.817Z,42.00
2019-04-06T00:42:17.231Z,41.90
2019-04-06T00:44:49.584Z,42.58
2019-04-06T00:47:20.889Z,43.52
2019-04-06T00:49:52.169Z,43.85
2019-04-06T00:52:23.432Z,44.18
2019-04-06T00:54:54.679Z,44.14
2019-04-06T00:57:26.022Z,43.92
2019-04-06T00:59:57.301Z,44.03
2019-04-06T01:02:28.683Z,44.33
2019-04-06T01:04:59.965Z,44.32
2019-04-06T01:07:31.475Z,44.33
2019-04-06T01:10:03.119Z,44.19
2019-04-06T01:12:34.509Z,44.08
2019-04-06T01:15:07.398Z,44.13
2019-04-06T01:17:38.721Z,44.06
2019-04-06T01:20:10.257Z,43.89
2019-04-06T01:22:41.570Z,43.97
2019-04-06T01:25:13.842Z,43.99
2019-04-06T01:27:45.135Z,43.98
2019-04-06T01:30:16.669Z,44.25
2019-04-06T01:32:47.934Z,44.39
2019-04-06T01:35:19.257Z,44.56
2019-04-06T01:37:50.618Z,44.65
2019-04-06T01:40:21.750Z,44.75
2019-04-06T01:42:54.155Z,44.92
2019-04-06T01:45:26.309Z,44.68
2019-04-06T01:47:57.754Z,44.63
2019-04-06T01:50:29.071Z,44.74
2019-04-06T01:53:00.420Z,44.72
2019-04-06T01:55:31.625Z,44.88
2019-04-06T01:58:02.934Z,44.92
2019-04-06T02:00:34.281Z,44.99
2019-04-06T02:03:05.601Z,45.23
2019-04-06T02:05:36.878Z,45.60
2019-04-06T02:08:08.225Z,45.90
2019-04-06T02:10:39.519Z,45.78
2019-04-06T02:13:10.854Z,46.06
2019-04-06T02:15:43.101Z,46.08
2019-04-06T02:18:14.409Z,46.11
2019-04-06T02:20:45.681Z,46.20
2019-04-06T02:23:17.031Z,46.12
2019-04-06T02:25:48.270Z,46.11
2019-04-06T02:28:19.567Z,46.17
2019-04-06T02:30:58.201Z,46.23
2019-04-06T02:33:31.097Z,46.03
2019-04-06T02:36:06.726Z,45.93
2019-04-06T02:38:45.731Z,45.98
2019-04-06T02:41:21.357Z,46.10
2019-04-06T02:43:52.688Z,46.74
2019-04-06T02:46:24.848Z,47.00
2019-04-06T02:48:56.197Z,46.95
2019-04-06T02:51:27.551Z,47.08
2019-04-06T02:53:58.767Z,47.16
2019-04-06T02:56:44.341Z,47.16
2019-04-06T02:59:03.077Z,47.11
2019-04-06T03:01:34.343Z,47.30
2019-04-06T03:04:05.719Z,47.74
2019-04-06T03:06:36.938Z,47.81
2019-04-06T03:09:11.314Z,48.52
2019-04-06T03:11:41.245Z,48.54
2019-04-06T03:14:12.511Z,48.23
2019-04-06T03:16:43.718Z,48.42
2019-04-06T03:19:15.000Z,48.85
2019-04-06T03:21:46.245Z,48.74
2019-04-06T03:24:17.541Z,48.95
2019-04-06T03:27:00.990Z,49.04
2019-04-06T03:29:21.905Z,49.44
2019-04-06T03:31:53.164Z,49.12
2019-04-06T03:34:24.475Z,48.60
2019-04-06T03:36:55.721Z,48.98
2019-04-06T03:39:27.077Z,48.61
2019-04-06T03:41:58.410Z,48.81
2019-04-06T03:44:29.736Z,48.85
2019-04-06T03:47:02.123Z,49.26
2019-04-06T03:49:33.486Z,49.26
2019-04-06T03:52:04.799Z,48.88
2019-04-06T03:54:36.216Z,48.58
2019-04-06T03:57:14.419Z,49.20
2019-04-06T03:59:40.716Z,49.25
2019-04-06T04:02:12.064Z,48.71
2019-04-06T04:04:43.319Z,48.44
2019-04-06T04:07:14.585Z,47.96
2019-04-06T04:09:46.291Z,47.83
2019-04-06T04:12:17.563Z,47.69
2019-04-06T04:14:48.908Z,47.61
2019-04-06T04:17:20.513Z,48.04
2019-04-06T04:19:52.089Z,47.61
2019-04-06T04:22:23.425Z,47.69
2019-04-06T04:24:55.900Z,48.08
2019-04-06T04:27:30.198Z,47.75
2019-04-06T04:30:00.487Z,48.02
2019-04-06T04:32:31.834Z,48.22
2019-04-06T04:35:03.224Z,48.26
2019-04-06T04:37:34.514Z,46.62
2019-04-06T04:40:05.942Z,46.19
2019-04-06T04:42:38.096Z,46.00
2019-04-06T04:45:09.608Z,45.60
2019-04-06T04:47:41.696Z,45.49
2019-04-06T04:50:13.191Z,44.98
2019-04-06T04:52:44.537Z,44.67
2019-04-06T04:55:15.842Z,44.43
2019-04-06T04:57:47.093Z,44.25
2019-04-06T05:00:18.381Z,44.37
2019-04-06T05:02:50.654Z,44.33
2019-04-06T05:05:21.891Z,44.21
2019-04-06T05:07:53.213Z,44.74
2019-04-06T05:10:24.571Z,44.27
2019-04-06T05:12:55.749Z,43.79
2019-04-06T05:15:35.953Z,43.62
2019-04-06T05:18:07.145Z,43.43
2019-04-06T05:20:38.474Z,43.48
2019-04-06T05:23:09.801Z,43.30
2019-04-06T05:25:41.174Z,43.07
2019-04-06T05:28:12.465Z,42.03
2019-04-06T05:30:43.789Z,42.24
2019-04-06T05:33:15.114Z,41.65
2019-04-06T05:35:46.431Z,40.71
2019-04-06T05:38:17.775Z,39.40
2019-04-06T05:40:49.080Z,39.11
2019-04-06T05:43:20.349Z,39.33
2019-04-06T05:45:51.674Z,39.08
2019-04-06T05:48:23.957Z,39.42
2019-04-06T05:50:55.527Z,40.16
2019-04-06T05:53:26.867Z,39.34
2019-04-06T05:55:58.191Z,38.51
2019-04-06T05:58:29.564Z,38.60
2019-04-06T06:01:03.699Z,38.08
2019-04-06T06:03:34.057Z,38.89
2019-04-06T06:06:05.433Z,38.16
2019-04-06T06:08:38.260Z,38.13
2019-04-06T06:11:09.664Z,38.17
2019-04-06T06:13:40.935Z,37.00
2019-04-06T06:16:12.370Z,36.61
2019-04-06T06:18:43.697Z,36.38
2019-04-06T06:21:15.006Z,36.08
2019-04-06T06:23:46.444Z,36.47
2019-04-06T06:26:17.981Z,35.85
2019-04-06T06:28:50.451Z,35.73
2019-04-06T06:31:21.900Z,35.40
2019-04-06T06:33:53.253Z,35.41
2019-04-06T06:36:24.618Z,35.28
2019-04-06T06:38:55.949Z,35.37
2019-04-06T06:41:27.421Z,34.70
2019-04-06T06:43:58.875Z,34.62
2019-04-06T06:46:30.253Z,34.60
2019-04-06T06:49:02.551Z,34.54
2019-04-06T06:51:34.280Z,34.55
2019-04-06T06:54:07.456Z,34.26
2019-04-06T06:56:38.724Z,34.78
2019-04-06T06:59:10.187Z,34.55
2019-04-06T07:01:41.525Z,34.52
2019-04-06T07:04:12.742Z,34.52
2019-04-06T07:06:43.988Z,34.46
2019-04-06T07:09:16.402Z,34.53
2019-04-06T07:11:47.798Z,34.08
2019-04-06T07:14:19.408Z,35.20
2019-04-06T07:16:50.718Z,35.83
2019-04-06T07:19:22.067Z,33.96
2019-04-06T07:21:53.511Z,33.92
2019-04-06T07:24:25.003Z,34.30
2019-04-06T07:26:56.683Z,34.68
2019-04-06T07:29:28.156Z,34.47
2019-04-06T07:32:02.686Z,33.68
2019-04-06T07:34:34.975Z,33.74
2019-04-06T07:37:08.416Z,33.95
2019-04-06T07:39:40.664Z,34.14
2019-04-06T07:42:12.593Z,33.99
2019-04-06T07:44:44.589Z,33.38
2019-04-06T07:47:16.383Z,33.04
2019-04-06T07:49:49.057Z,32.85
2019-04-06T07:52:20.459Z,32.63
2019-04-06T07:54:51.822Z,32.18
2019-04-06T07:57:23.249Z,32.30
2019-04-06T07:59:54.665Z,32.81
2019-04-06T08:02:26.038Z,31.61
2019-04-06T08:04:57.493Z,31.29
2019-04-06T08:07:29.123Z,31.48
2019-04-06T08:10:01.996Z,31.17
2019-04-06T08:12:34.708Z,31.05
2019-04-06T08:15:08.086Z,31.15
2019-04-06T08:17:40.689Z,30.81
2019-04-06T08:20:12.220Z,30.61
2019-04-06T08:22:43.778Z,29.24
2019-04-06T08:25:16.424Z,29.08
2019-04-06T08:27:47.904Z,28.16
2019-04-06T08:30:19.415Z,27.83
2019-04-06T08:32:50.744Z,27.67
2019-04-06T08:35:25.994Z,27.66
2019-04-06T08:37:55.200Z,28.08
2019-04-06T08:40:26.660Z,27.87
2019-04-06T08:42:58.422Z,27.39
2019-04-06T08:45:29.823Z,27.55
2019-04-06T08:48:01.205Z,27.27
2019-04-06T08:50:33.678Z,27.32
2019-04-06T08:53:05.031Z,26.78
2019-04-06T08:55:36.713Z,25.84
2019-04-06T08:58:08.214Z,26.01
2019-04-06T09:00:39.534Z,25.85
2019-04-06T09:03:11.908Z,25.90
2019-04-06T09:05:43.358Z,26.20
2019-04-06T09:08:16.539Z,26.09
2019-04-06T09:10:48.078Z,26.39
2019-04-06T09:13:19.526Z,25.85
2019-04-06T09:15:51.029Z,25.41
2019-04-06T09:18:22.721Z,25.56
2019-04-06T09:20:54.190Z,25.39
2019-04-06T09:23:25.892Z,24.57
2019-04-06T09:25:57.859Z,25.12
2019-04-06T09:28:29.724Z,24.43
2019-04-06T09:31:02.183Z,24.85
2019-04-06T09:33:33.702Z,24.48
2019-04-06T09:36:05.197Z,24.84
2019-04-06T09:38:36.592Z,25.08
2019-04-06T09:41:08.045Z,24.63
2019-04-06T09:43:39.416Z,24.90
2019-04-06T09:46:15.671Z,24.12
2019-04-06T09:49:01.021Z,24.49
2019-04-06T09:51:52.954Z,25.21
2019-04-06T09:54:29.822Z,24.72
2019-04-06T09:57:05.831Z,23.92
2019-04-06T09:59:48.475Z,24.24
2019-04-06T10:02:21.699Z,24.24
2019-04-06T10:05:10.039Z,24.25
2019-04-06T10:07:43.061Z,24.44
2019-04-06T10:10:29.035Z,24.48
2019-04-06T10:13:11.022Z,24.11
2019-04-06T10:15:46.776Z,24.18
2019-04-06T10:18:35.969Z,24.20
2019-04-06T10:21:20.853Z,23.94
2019-04-06T10:24:09.983Z,23.69
2019-04-06T10:26:42.896Z,23.80
2019-04-06T10:29:31.114Z,24.32
2019-04-06T10:32:06.833Z,23.92
2019-04-06T10:34:39.797Z,23.43
2019-04-06T10:39:09.938Z,23.59
2019-04-06T10:41:48.888Z,23.81
2019-04-06T10:44:28.093Z,23.60
2019-04-06T10:47:16.753Z,23.28
2019-04-06T10:49:52.721Z,23.84
2019-04-06T10:52:26.988Z,24.06
2019-04-06T10:55:00.216Z,23.87
2019-04-06T10:57:41.946Z,24.02
2019-04-06T11:00:31.229Z,23.76
2019-04-06T11:03:04.231Z,23.88
2019-04-06T11:05:49.446Z,24.04
2019-04-06T11:08:22.435Z,24.10
2019-04-06T11:11:04.702Z,23.69
2019-04-06T11:13:37.610Z,23.29
2019-04-06T11:16:22.802Z,23.09
2019-04-06T11:19:01.548Z,23.40
2019-04-06T11:21:46.569Z,23.33
2019-04-06T11:24:35.829Z,23.60
2019-04-06T11:27:27.264Z,23.47
2019-04-06T11:30:14.747Z,23.72
2019-04-06T11:33:02.028Z,23.55
2019-04-06T11:35:50.847Z,23.34
2019-04-06T11:38:23.802Z,23.26
2019-04-06T11:40:56.717Z,23.41
2019-04-06T11:43:33.530Z,24.10
2019-04-06T11:46:12.615Z,23.30
2019-04-06T11:49:01.985Z,23.50
2019-04-06T11:51:37.921Z,24.17
2019-04-06T11:54:17.063Z,23.66
2019-04-06T11:56:56.141Z,23.94
2019-04-06T11:59:29.120Z,23.92
2019-04-06T12:02:02.937Z,23.91
2019-04-06T12:04:38.781Z,23.93
2019-04-06T12:07:11.657Z,23.67
2019-04-06T12:10:00.801Z,23.59
2019-04-06T12:12:49.290Z,23.79
2019-04-06T12:15:25.100Z,23.79
2019-04-06T12:17:58.000Z,23.81
2019-04-06T12:20:30.980Z,23.65
2019-04-06T12:23:03.904Z,23.96
2019-04-06T12:25:39.828Z,23.84
2019-04-06T12:28:12.640Z,24.00
2019-04-06T12:31:01.830Z,23.63
2019-04-06T12:33:43.758Z,23.83
2019-04-06T12:36:19.645Z,28.46
2019-04-06T12:38:52.859Z,24.63
2019-04-06T12:41:26.256Z,25.04
2019-04-06T12:44:15.404Z,25.35
